Airfield :
LOGIN :

Register | Disclaimer

   EN    FR    IT 

 










Legend :    VFR   Marginal VFR   IFR   Intensive IFR   Very Intensive IFR
Visi :
Ceiling :
>= 8 km
>= 3000ft
5 to 8 km
1000 to 3000 ft
1500m to 5 km
500 to 1000 ft
800 to 1500m
200 to 500 ft
< 800m
< 200 ft
Symbols :   Thunderstorms  Fog  Heavy snow  Heavy precipitations  Wind > 20 kt
SIGMETs :     Misc.  Thunderstorms  Icing  Turbulence  Mountain Waves  Volcanic Ashes






- Airport Elevation : 614 ft
- IATA code : CRL


EBCI - Charleroi

CURRENT METAR :
  • 080150Z 21015KT 9999 SCT020 BKN025 08/05 Q1011 NOSIG

EXPIRED METARs :
  • 080120Z 21013KT 9999 SCT020 BKN025 09/05 Q1011 NOSIG
  • 080050Z 21015KT 9999 SCT020 BKN025 08/05 Q1011 NOSIG
  • 080020Z 21014KT 9999 BKN028 08/05 Q1012 NOSIG
  • 072350Z 20016KT 9999 FEW020 BKN035 08/05 Q1013 NOSIG
  • 072320Z 21012KT 9999 FEW020 BKN035 08/05 Q1014 NOSIG

TAF TAF EBCI
Valid from the 08 at 00:00 until the 09 at 06:00 UTC


072320Z 0800/0906 21012KT 9999 SCT016
BECMG 0802/0804 22019G35KT
TEMPO 0804/0812 3500 RA RADZ BKN008
BECMG 0811/0813 24014KT
TEMPO 0818/0906 3000 SHRAGS BKN014CB
PROB40
TEMPO 0819/0904 23018G30KT



MET'MAP, your aeronautical weather chart ! - Copyright ORBIFLY December 2007 - Disclaimer

ORBIFLY MET'MAP TEAM :

Programming & Development : Alexandra Zaïnal
Concept & original design : Baudouin d'Aumeries
Assistance for programming : Marc-Olivier Méhu
Technical & hardware support : Manuel Goepfert

Contact : metmap@orbifly.com




SOURCES & CREDITS :

   NOAA